Wednesday, November 21, 2018, 9:57 AM GMT
Back to Local

CYHU, Saint Hubert Airport

Location: , , Canada Lat: 45.517
Local Time: 9:57 AM GMT ( 9:57 GMT) Lon: -73.417
Time Zone: GMT Elev: 88 ft

Show me the last for .
Show Coded

Time T Td Feel RH Dir Speed Gust Alt SLP Vis Weather Sky Remarks
2018-11-21 09:34 19 16 9 85 190° 9 - 29.89 29.90 9 -SN BKN018 OVC024 None
2018-11-21 09:28 19 16 9 85 190° 9 - 29.90 29.90 9 BKN018 OVC022 None
2018-11-21 09:10 19 16 11 85 190° 6 - 29.91 29.92 9 -SN SCT016 BKN023 BKN028 None
2018-11-21 09:00 18 14 8 85 190° 7 - 29.91 29.92 9 -SN FEW020 BKN028 BKN070 None
2018-11-21 08:56 18 14 8 85 190° 7 - 29.91 29.92 9 -SN SCT026 BKN070 None
2018-11-21 08:00 19 14 11 79 260° 6 - 29.93 29.93 9 FEW032 OVC110 None
2018-11-21 07:00 19 14 7 79 260° 13 - 29.94 29.95 9 OVC034 None
2018-11-21 06:00 21 16 9 79 240° 12 - 29.95 29.96 9 BKN047 OVC110 None
2018-11-21 05:44 21 16 9 79 240° 13 - 29.95 29.96 9 SCT014 OVC047 None
2018-11-21 05:36 21 16 8 79 240° 14 - 29.95 29.96 9 -SN SCT014 OVC049 None
2018-11-21 05:00 23 18 11 79 230° 13 - 29.95 29.96 9 -SN BKN014 BKN021 OVC027 None
2018-11-21 04:21 23 18 12 79 250° 12 - 29.95 29.96 9 -SN FEW016 BKN024 OVC050 None
2018-11-21 04:11 23 19 12 85 260° 10 - 29.95 29.96 7 -SN SCT016 OVC026 None
2018-11-21 04:09 23 19 12 85 250° 10 - 29.95 29.96 6 -SN SCT016 OVC024 None
2018-11-21 04:00 23 19 12 85 250° 10 - 29.95 29.96 3 -SN SCT016 OVC024 None
2018-11-21 03:57 23 19 12 85 250° 10 - 29.95 29.96 3 -SN SCT016 OVC024 None
2018-11-21 03:45 21 19 14 92 220° 6 - 29.96 29.96 2 -SN FEW016 OVC024 None
2018-11-21 03:26 21 19 14 92 180° 6 - 29.96 29.96 1 -SN FEW010 BKN017 OVC025 None
2018-11-21 03:18 21 19 14 92 180° 6 - 29.96 29.97 2 -SN FEW010 BKN017 OVC025 None
2018-11-21 03:11 21 19 13 92 180° 7 - 29.96 29.97 1 -SN BKN015 OVC023 None
2018-11-21 03:07 21 18 13 85 180° 7 - 29.96 29.97 2 -SN OVC015 None
2018-11-21 03:00 21 18 14 85 180° 6 - 29.96 29.97 3 -SN OVC017 None
2018-11-21 02:53 21 18 15 85 170° 5 - 29.96 29.97 3 -SN OVC017 None
2018-11-21 02:50 21 18 15 85 170° 5 - 29.96 29.97 2 -SN OVC017 None
2018-11-21 02:46 21 18 15 85 190° 5 - 29.96 29.97 1 -SN OVC017 None
2018-11-21 02:42 21 18 15 85 190° 5 - 29.97 29.98 2 -SN OVC019 None
2018-11-21 02:36 21 18 15 85 200° 5 - 29.97 29.98 5 -SN OVC019 None
2018-11-21 02:00 21 18 15 85 250° 5 - 29.97 29.98 9 -SN OVC020 None
2018-11-21 01:42 21 18 - 85 250° 2 - 29.97 29.98 8 -SN BKN022 OVC028 None
2018-11-21 01:15 21 16 - 79 310° 2 - 29.97 29.98 6 -SN SCT014 BKN030 OVC042 None
2018-11-21 01:03 21 16 16 79 290° 3 - 29.97 29.98 6 -SN OVC014 None
2018-11-21 01:00 21 16 - 79 290° 2 - 29.97 29.98 5 -SN OVC016 None
2018-11-21 00:58 21 18 16 85 300° 3 - 29.97 29.98 5 -SN OVC016 None
2018-11-21 00:45 21 18 16 85 300° 3 - 29.96 29.97 6 -SN OVC016 None
2018-11-21 00:39 21 18 15 85 320° 5 - 29.96 29.97 3 -SN OVC016 None
2018-11-21 00:36 21 18 15 85 320° 5 - 29.96 29.97 2 -SN OVC016 None
2018-11-21 00:29 21 18 13 85 320° 7 - 29.96 29.97 5 -SN OVC016 None
2018-11-21 00:14 21 18 16 85 310° 3 - 29.96 29.97 7 -SN OVC016 None
2018-11-21 00:00 21 18 15 85 310° 5 - 29.96 29.97 4 -SN OVC016 None
2018-11-20 23:58 21 18 15 85 310° 5 - 29.96 29.97 5 -SN OVC016 None
2018-11-20 23:09 19 18 14 92 300° 3 - 29.96 29.96 6 -SN BKN013 OVC020 None
2018-11-20 23:00 19 18 14 92 330° 3 - 29.95 29.96 3 -SN BKN013 OVC020 None
2018-11-20 22:51 19 18 14 92 350° 3 - 29.95 29.96 5 -SN SCT011 BKN016 OVC022 None
2018-11-20 22:35 19 18 13 92 340° 5 - 29.95 29.96 6 -SN BKN022 OVC030 None
2018-11-20 22:27 19 16 11 85 330° 6 - 29.95 29.96 4 -SN BKN022 OVC032 None
2018-11-20 22:00 19 18 11 92 340° 6 - 29.94 29.95 3 -SN OVC044 None
2018-11-20 21:54 19 18 11 92 330° 6 - 29.94 29.94 5 -SN OVC046 None
2018-11-20 21:48 19 18 10 92 350° 7 - 29.94 29.94 6 -SN FEW011 OVC046 None
2018-11-20 21:13 19 16 13 85 360° 5 - 29.93 29.94 5 -SN FEW011 OVC046 None
2018-11-20 21:02 19 16 10 85 20° 7 - 29.93 29.93 6 -SN BKN038 OVC050 None
2018-11-20 21:00 19 16 10 85 20° 7 - 29.92 29.93 4 -SN BKN038 OVC050 None
2018-11-20 20:56 19 16 10 85 10° 7 - 29.93 29.93 3 -SN BKN034 OVC050 None
2018-11-20 20:00 19 16 8 85 30° 10 - 29.92 29.93 2 -SN BKN028 OVC035 None
2018-11-20 19:48 19 16 9 85 20° 9 - 29.92 29.93 1 -SN BKN028 OVC034 None
2018-11-20 19:12 19 16 8 85 20° 10 - 29.93 29.94 2 -SN BKN030 OVC036 None
2018-11-20 19:00 19 16 7 85 20° 13 - 29.93 29.94 1 -SN OVC026 None
2018-11-20 18:49 19 16 7 85 30° 12 - 29.93 29.93 1 -SN OVC026 None
2018-11-20 18:43 19 16 7 85 20° 13 - 29.93 29.93 1 -SN OVC024 None
2018-11-20 18:20 19 16 6 85 20° 14 - 29.93 29.93 1 -SN BKN026 OVC033 None
2018-11-20 18:02 19 16 7 85 20° 13 - 29.93 29.94 2 -SN OVC028 None
2018-11-20 18:00 19 16 7 85 20° 13 - 29.94 29.94 1 -SN OVC028 None
2018-11-20 17:48 19 16 5 85 30° 15 - 29.94 29.94 1 -SN BKN028 BKN032 OVC041 None
2018-11-20 17:45 19 14 5 79 30° 15 - 29.94 29.95 2 -SN BKN030 OVC041 None
2018-11-20 17:41 19 16 6 85 30° 14 - 29.94 29.95 5 -SN BKN032 OVC044 None
2018-11-20 17:29 19 16 7 85 20° 13 - 29.94 29.95 7 -SN BKN029 BKN036 OVC045 None
2018-11-20 17:23 19 16 7 85 20° 12 - 29.94 29.95 3 -SN BKN027 BKN036 OVC043 None
2018-11-20 17:20 19 16 7 85 20° 13 - 29.94 29.95 2 -SN BKN025 OVC036 None
2018-11-20 17:19 19 16 7 85 20° 13 - 29.94 29.95 2 -SN BKN023 OVC028 None
2018-11-20 17:00 19 16 7 85 20° 13 - 29.95 29.96 1 -SN BKN023 OVC029 None
2018-11-20 16:50 19 16 6 85 20° 14 - 29.95 29.96 1 -SN BKN023 OVC030 None
2018-11-20 16:47 19 16 6 85 20° 14 - 29.95 29.96 1 -SN OVC025 None
2018-11-20 16:28 19 16 4 85 20° 13 18 29.96 29.97 2 -SN OVC025 None
2018-11-20 16:25 19 14 6 79 20° 14 - 29.96 29.97 1 -SN OVC025 None
2018-11-20 16:02 18 14 4 85 20° 14 - 29.97 29.98 1 -SN BKN023 OVC034 None
2018-11-20 16:00 18 14 3 85 20° 15 - 29.97 29.98 1 -SN BKN025 OVC034 None
2018-11-20 15:53 18 14 2 85 20° 12 17 29.97 29.98 1 -SN BKN027 OVC034 None
2018-11-20 15:46 18 14 4 85 30° 13 - 29.98 29.98 2 -SN SCT027 OVC034 None
2018-11-20 15:33 18 14 2 85 20° 12 17 29.98 29.99 3 -SN BKN027 OVC034 None
2018-11-20 15:30 18 14 4 85 30° 14 - 29.98 29.99 2 -SN BKN025 OVC034 None
2018-11-20 15:00 18 14 5 85 20° 12 - 29.99 30.00 1 -SN OVC023 None
2018-11-20 14:54 18 14 5 85 20° 12 - 29.99 29.99 1 -SN OVC023 None
2018-11-20 14:30 18 14 2 85 30° 13 18 29.99 29.99 1 -SN OVC025 None
2018-11-20 14:00 18 14 3 85 30° 16 - 29.99 30.00 1 -SN OVC017 None
2018-11-20 13:00 18 14 4 85 20° 14 - 30.00 30.01 1 -SN OVC015 None
2018-11-20 12:38 18 16 2 92 30° 13 18 30.00 30.01 1 -SN OVC019 None
2018-11-20 12:30 18 16 4 92 30° 13 - 30.00 30.01 2 -SN OVC019 None
2018-11-20 12:14 18 14 4 85 30° 14 - 30.00 30.01 1 -SN OVC021 None
2018-11-20 12:06 18 14 4 85 30° 14 - 30.00 30.01 2 -SN OVC023 None
2018-11-20 12:00 18 16 5 92 30° 12 - 30.00 30.01 2 -SN OVC027 None
2018-11-20 11:57 18 16 5 92 20° 12 - 30.00 30.01 2 -SN OVC027 None
2018-11-20 11:00 19 14 7 79 30° 13 - 30.00 30.01 5 -SN OVC045 None
2018-11-20 10:38 19 14 7 79 30° 13 - 30.00 30.01 7 -SN SCT019 OVC045 None
2018-11-20 10:36 19 14 6 79 30° 14 - 30.00 30.01 6 -SN BKN019 OVC045 None
2018-11-20 10:20 19 14 6 79 30° 14 - 30.00 30.01 4 -SN OVC019 None
2018-11-20 10:00 19 14 5 79 30° 15 - 30.00 30.01 9 -SN OVC017 None

Support USWX by starting your Amazon purchase here.